Time;durP1;ratioP1;P1;durP2;ratioP2;P2;SDS_P1;SDS_P2;PMS_P1;PMS_P2;Temp;Humidity;BMP_temperature;BMP_pressure;BME280_temperature;BME280_humidity;BME280_pressure;Samples;Min_cycle;Max_cycle;Signal;HPM_P1;HPM_P2
2024/04/06 00:00:14;;;;;;;7.22;3.78;;;;;;;2.30;53.09;99324.28;5113539;28;20055;-65
2024/04/06 00:02:41;;;;;;;6.72;3.60;;;;;;;2.33;52.97;99329.13;5095331;28;20032;-65
2024/04/06 00:05:09;;;;;;;5.15;3.00;;;;;;;2.30;53.09;99326.88;5094668;28;20058;-66
2024/04/06 00:07:35;;;;;;;12.60;3.55;;;;;;;2.32;53.00;99330.91;5095395;28;20139;-67
2024/04/06 00:10:01;;;;;;;7.93;3.70;;;;;;;2.20;52.88;99322.72;5094616;28;20048;-67
2024/04/06 00:12:28;;;;;;;11.13;3.85;;;;;;;2.23;53.54;99324.97;5128519;27;20519;-66
2024/04/06 00:14:54;;;;;;;7.13;3.63;;;;;;;2.23;53.46;99318.94;5112196;28;20573;-65
2024/04/06 00:17:21;;;;;;;5.38;3.92;;;;;;;2.19;53.53;99304.63;5112675;28;20044;-65
2024/04/06 00:19:47;;;;;;;5.70;4.03;;;;;;;2.25;53.52;99301.28;5112366;28;20089;-65
2024/04/06 00:22:13;;;;;;;5.90;3.92;;;;;;;2.18;53.79;99303.81;5094979;28;20051;-65
2024/04/06 00:24:40;;;;;;;7.18;3.72;;;;;;;2.24;53.52;99302.28;5112840;28;20501;-64
2024/04/06 00:27:05;;;;;;;6.63;3.97;;;;;;;2.23;53.51;99290.19;5112745;28;20050;-65
2024/04/06 00:29:31;;;;;;;7.20;3.88;;;;;;;2.20;53.63;99299.19;5112596;28;20071;-65
2024/04/06 00:31:57;;;;;;;7.22;3.95;;;;;;;2.21;54.14;99300.03;5094438;28;20050;-64
2024/04/06 00:34:23;;;;;;;8.50;4.47;;;;;;;2.29;53.86;99289.44;5094001;28;20031;-65
2024/04/06 00:36:49;;;;;;;8.13;3.88;;;;;;;2.35;53.84;99288.69;5112837;28;20043;-65
2024/04/06 00:39:15;;;;;;;7.15;4.38;;;;;;;2.36;53.77;99285.09;5111482;28;20496;-66
2024/04/06 00:41:40;;;;;;;11.07;4.50;;;;;;;2.37;53.70;99280.66;5112961;28;20066;-66
2024/04/06 00:44:07;;;;;;;5.82;4.05;;;;;;;2.34;53.92;99276.63;5112345;28;20046;-65
2024/04/06 00:46:32;;;;;;;7.43;4.70;;;;;;;2.31;54.23;99273.56;5112871;28;20466;-65
2024/04/06 00:48:58;;;;;;;6.03;4.50;;;;;;;2.28;54.15;99272.13;5112267;28;20059;-65
2024/04/06 00:51:24;;;;;;;6.13;4.32;;;;;;;2.28;54.37;99272.94;5094296;28;20558;-66
2024/04/06 00:53:49;;;;;;;7.78;5.00;;;;;;;2.29;54.44;99276.34;5094066;28;20039;-65
2024/04/06 00:56:15;;;;;;;6.13;4.30;;;;;;;2.27;54.84;99265.28;5112311;28;20039;-64
2024/04/06 00:58:41;;;;;;;9.68;5.07;;;;;;;2.28;54.66;99266.91;5112414;28;20031;-65
2024/04/06 01:01:07;;;;;;;6.55;4.68;;;;;;;2.31;54.73;99266.53;5094166;28;20407;-64
2024/04/06 01:03:33;;;;;;;7.88;4.57;;;;;;;2.35;54.75;99259.09;5112410;28;20035;-66
2024/04/06 01:05:59;;;;;;;10.43;5.22;;;;;;;2.41;54.57;99259.19;5112358;28;20209;-65
2024/04/06 01:08:25;;;;;;;8.15;5.22;;;;;;;2.42;54.65;99258.19;5111183;28;20047;-65
2024/04/06 01:10:50;;;;;;;7.22;4.97;;;;;;;2.46;54.54;99262.03;5060488;28;20103;-65
2024/04/06 01:13:16;;;;;;;11.68;5.90;;;;;;;2.48;54.83;99261.84;5076781;28;20462;-65
2024/04/06 01:15:42;;;;;;;10.45;5.20;;;;;;;2.49;54.65;99266.88;5112365;28;20055;-65
2024/04/06 01:18:08;;;;;;;11.43;5.63;;;;;;;2.49;54.87;99259.03;5094378;28;20177;-66
2024/04/06 01:20:35;;;;;;;9.70;5.18;;;;;;;2.45;55.01;99255.19;5112164;28;20047;-66
2024/04/06 01:23:03;;;;;;;9.70;5.93;;;;;;;2.45;55.29;99251.75;5093830;28;20394;-65
2024/04/06 01:25:28;;;;;;;8.38;5.60;;;;;;;2.44;55.26;99252.75;5094128;28;20126;-65
2024/04/06 01:27:54;;;;;;;9.38;5.78;;;;;;;2.43;54.99;99258.97;5112083;28;20131;-66
2024/04/06 01:30:20;;;;;;;8.57;6.03;;;;;;;2.45;55.18;99254.38;5112311;28;20477;-64
2024/04/06 01:32:51;;;;;;;10.15;6.35;;;;;;;2.45;55.16;99259.63;5111934;28;20504;-64
2024/04/06 01:35:17;;;;;;;11.55;6.78;;;;;;;2.54;55.40;99242.78;5093876;28;20054;-66
2024/04/06 01:37:46;;;;;;;15.20;8.27;;;;;;;2.57;55.19;99245.03;5094128;28;20351;-65
2024/04/06 01:40:12;;;;;;;17.20;7.90;;;;;;;2.49;55.57;99238.09;5093443;28;20036;-65
2024/04/06 01:42:38;;;;;;;12.98;8.00;;;;;;;2.48;55.89;99231.25;5093723;28;20527;-65
2024/04/06 01:45:05;;;;;;;12.65;7.65;;;;;;;2.49;55.49;99226.84;5111654;28;20504;-66
2024/04/06 01:47:33;;;;;;;12.43;7.68;;;;;;;2.56;55.59;99227.72;5093836;28;20116;-66
2024/04/06 01:50:01;;;;;;;12.90;8.05;;;;;;;2.54;55.81;99224.47;5075375;28;20505;-65
2024/04/06 01:52:29;;;;;;;13.13;8.13;;;;;;;2.61;55.89;99227.13;5070034;28;20051;-68
2024/04/06 01:54:55;;;;;;;15.20;8.05;;;;;;;2.50;55.97;99228.47;5071089;28;20040;-64
2024/04/06 01:57:21;;;;;;;16.77;8.48;;;;;;;2.54;56.64;99229.69;5071139;28;20502;-65
2024/04/06 01:59:46;;;;;;;14.23;8.25;;;;;;;2.67;56.20;99213.28;5053066;28;20074;-65
2024/04/06 02:02:13;;;;;;;14.10;9.57;;;;;;;2.74;55.97;99222.00;5071101;28;20043;-66
2024/04/06 02:04:42;;;;;;;12.93;9.07;;;;;;;2.74;56.43;99222.00;5071094;28;20041;-65
2024/04/06 02:07:08;;;;;;;16.52;9.13;;;;;;;2.73;56.05;99215.94;5070894;28;20047;-66
2024/04/06 02:09:34;;;;;;;21.15;10.27;;;;;;;2.77;56.12;99221.63;5069675;28;20049;-65
2024/04/06 02:12:00;;;;;;;15.18;9.43;;;;;;;2.76;56.03;99208.72;5071331;28;20044;-65
2024/04/06 02:14:26;;;;;;;14.07;9.60;;;;;;;2.82;56.06;99214.00;5070688;28;20037;-64
2024/04/06 02:16:51;;;;;;;17.85;8.68;;;;;;;2.77;56.15;99221.63;5070946;28;20135;-65
2024/04/06 02:19:17;;;;;;;15.93;8.95;;;;;;;2.79;56.10;99219.59;5067994;28;20050;-66
2024/04/06 02:21:43;;;;;;;17.40;9.73;;;;;;;2.84;56.32;99213.81;5070831;28;20041;-65
2024/04/06 02:24:09;;;;;;;18.98;9.73;;;;;;;2.84;56.38;99217.22;5051379;28;20076;-66
2024/04/06 02:26:34;;;;;;;20.45;9.73;;;;;;;2.83;56.30;99215.63;5070814;28;20048;-65
2024/04/06 02:29:00;;;;;;;16.25;9.63;;;;;;;2.90;56.24;99220.91;5070336;28;20131;-65
2024/04/06 02:31:27;;;;;;;18.75;10.65;;;;;;;2.92;55.71;99208.44;5069301;28;20041;-65
2024/04/06 02:33:53;;;;;;;18.10;9.77;;;;;;;2.92;56.30;99204.00;5068859;28;20417;-66
2024/04/06 02:36:19;;;;;;;18.48;10.00;;;;;;;2.99;56.48;99211.09;5070689;28;20498;-65
2024/04/06 02:38:47;;;;;;;17.48;10.35;;;;;;;3.02;56.01;99210.69;5070454;28;20097;-65
2024/04/06 02:41:12;;;;;;;17.23;10.07;;;;;;;3.05;56.21;99202.44;5070577;28;20041;-65
2024/04/06 02:43:39;;;;;;;19.10;10.77;;;;;;;3.00;56.26;99195.19;5070446;28;20039;-65
2024/04/06 02:46:04;;;;;;;21.20;10.07;;;;;;;3.02;56.60;99200.22;5069141;28;20057;-65
2024/04/06 02:48:30;;;;;;;22.00;10.10;;;;;;;3.07;56.55;99200.47;5030292;28;20164;-66
2024/04/06 02:50:56;;;;;;;19.70;10.18;;;;;;;3.12;56.42;99200.69;5092417;28;20489;-65
2024/04/06 02:53:22;;;;;;;18.10;10.07;;;;;;;3.17;55.88;99187.81;5117929;28;20046;-65
2024/04/06 02:55:48;;;;;;;19.17;10.32;;;;;;;3.14;56.01;99175.09;5110510;28;20040;-65
2024/04/06 02:58:13;;;;;;;19.27;10.73;;;;;;;3.04;56.20;99174.66;5111114;28;20055;-66
2024/04/06 03:00:39;;;;;;;19.50;10.60;;;;;;;3.00;56.42;99184.72;5111206;28;20044;-65
2024/04/06 03:03:05;;;;;;;19.80;10.05;;;;;;;3.01;56.52;99181.09;5096726;28;20046;-65
2024/04/06 03:05:31;;;;;;;19.27;10.35;;;;;;;3.03;56.74;99186.13;5114461;28;20043;-65
2024/04/06 03:07:57;;;;;;;19.20;10.10;;;;;;;3.04;56.57;99182.53;5114621;28;20039;-65
2024/04/06 03:10:23;;;;;;;18.38;10.25;;;;;;;3.01;56.94;99175.06;5096291;28;20054;-65
2024/04/06 03:12:48;;;;;;;18.98;10.55;;;;;;;3.05;57.15;99179.69;5096408;28;20040;-64
2024/04/06 03:15:14;;;;;;;18.42;10.43;;;;;;;3.09;56.63;99180.94;5096109;28;20047;-65
2024/04/06 03:17:40;;;;;;;17.67;9.88;;;;;;;3.04;56.58;99182.53;5096610;28;20042;-66
2024/04/06 03:20:08;;;;;;;18.98;10.45;;;;;;;2.98;57.03;99181.47;5114525;28;20039;-65
2024/04/06 03:22:34;;;;;;;17.65;9.75;;;;;;;2.95;56.76;99181.88;5096479;28;20051;-65
2024/04/06 03:25:00;;;;;;;15.80;10.00;;;;;;;2.94;57.16;99183.69;5095966;28;20462;-65
2024/04/06 03:27:26;;;;;;;17.13;10.07;;;;;;;2.92;57.03;99177.81;5114677;28;20070;-65
2024/04/06 03:29:52;;;;;;;17.83;8.98;;;;;;;2.90;57.11;99169.34;5114240;28;20052;-66
2024/04/06 03:32:17;;;;;;;20.73;9.73;;;;;;;2.99;57.42;99185.69;5114138;28;20096;-66
2024/04/06 03:34:43;;;;;;;18.73;10.13;;;;;;;2.98;57.63;99186.72;5114279;28;20047;-65
2024/04/06 03:37:09;;;;;;;19.42;9.98;;;;;;;3.04;57.26;99174.66;5095912;28;20039;-65
2024/04/06 03:39:35;;;;;;;16.52;9.05;;;;;;;3.06;57.06;99172.63;5113974;28;20047;-65
2024/04/06 03:42:01;;;;;;;16.60;9.63;;;;;;;3.06;57.46;99183.13;5113924;28;20047;-64
2024/04/06 03:44:27;;;;;;;17.75;9.43;;;;;;;3.02;57.43;99171.41;5095316;28;20041;-64
2024/04/06 03:46:53;;;;;;;16.85;9.23;;;;;;;3.09;57.42;99173.09;5079020;28;20067;-65
2024/04/06 03:49:18;;;;;;;20.95;9.30;;;;;;;3.10;57.50;99168.66;5083867;28;20091;-65
2024/04/06 03:51:44;;;;;;;15.75;9.02;;;;;;;3.16;57.56;99170.50;5073695;28;20497;-64
2024/04/06 03:54:10;;;;;;;20.95;10.60;;;;;;;3.08;57.68;99178.50;5073444;28;20047;-64
2024/04/06 03:56:37;;;;;;;19.75;9.80;;;;;;;3.10;57.54;99179.13;5073608;28;20036;-66
2024/04/06 03:59:03;;;;;;;20.27;9.50;;;;;;;3.13;57.55;99173.50;5073337;28;20037;-65
2024/04/06 04:01:28;;;;;;;18.42;9.32;;;;;;;3.14;57.54;99169.88;5055247;28;20044;-66
2024/04/06 04:03:54;;;;;;;19.38;9.95;;;;;;;3.26;57.40;99165.69;5072077;28;20555;-65
2024/04/06 04:06:20;;;;;;;17.50;9.32;;;;;;;3.27;57.44;99177.78;5073458;28;20044;-65
2024/04/06 04:08:45;;;;;;;18.70;9.10;;;;;;;3.25;57.58;99171.13;5072852;28;20501;-66
2024/04/06 04:11:11;;;;;;;15.98;8.95;;;;;;;3.32;57.45;99171.97;5073204;28;20086;-66
2024/04/06 04:13:37;;;;;;;16.52;9.23;;;;;;;3.34;57.59;99172.56;5072554;28;20106;-65
2024/04/06 04:16:04;;;;;;;22.77;9.27;;;;;;;3.40;57.65;99167.34;5073201;28;20055;-66
2024/04/06 04:18:30;;;;;;;17.70;8.82;;;;;;;3.49;57.57;99165.38;5072903;28;20056;-65
2024/04/06 04:20:55;;;;;;;23.83;9.43;;;;;;;3.44;57.32;99159.91;5071702;28;20417;-66
2024/04/06 04:23:21;;;;;;;16.23;9.40;;;;;;;3.47;57.59;99161.31;5055083;28;20516;-65
2024/04/06 04:25:47;;;;;;;16.55;9.55;;;;;;;3.55;57.69;99164.59;5072925;28;20418;-66
2024/04/06 04:28:13;;;;;;;17.20;9.15;;;;;;;3.65;57.58;99153.75;5072774;28;20116;-67
2024/04/06 04:30:38;;;;;;;15.13;8.98;;;;;;;3.68;57.56;99152.50;5071278;28;20052;-65
2024/04/06 04:33:07;;;;;;;15.02;9.32;;;;;;;3.67;58.09;99159.56;5072633;28;20127;-66
2024/04/06 04:35:33;;;;;;;17.95;9.82;;;;;;;3.67;57.81;99166.63;5072445;28;20056;-66
2024/04/06 04:37:59;;;;;;;17.15;9.57;;;;;;;3.72;58.23;99172.09;5072562;28;20094;-65
2024/04/06 04:40:24;;;;;;;16.48;9.63;;;;;;;3.76;58.38;99168.06;5054548;28;20044;-66
2024/04/06 04:42:50;;;;;;;16.48;9.25;;;;;;;3.76;58.29;99175.94;5072282;28;20394;-66
2024/04/06 04:45:16;;;;;;;16.73;9.30;;;;;;;3.69;58.29;99169.88;5072347;28;20418;-66
2024/04/06 04:47:42;;;;;;;16.73;9.20;;;;;;;3.73;58.30;99174.50;5072428;28;20494;-66
2024/04/06 04:50:11;;;;;;;16.75;9.45;;;;;;;3.82;58.25;99170.72;5102667;28;20473;-65
2024/04/06 04:52:37;;;;;;;14.02;9.57;;;;;;;3.83;58.59;99159.22;5112896;28;20043;-66
2024/04/06 04:55:07;;;;;;;18.77;9.40;;;;;;;3.76;59.01;99158.38;5112582;28;20099;-67
2024/04/06 04:57:33;;;;;;;17.25;10.20;;;;;;;3.73;58.99;99161.41;5111783;28;20051;-67
2024/04/06 04:59:59;;;;;;;16.15;9.52;;;;;;;3.70;59.71;99159.19;5094750;28;20122;-66
2024/04/06 05:02:33;;;;;;;18.77;10.00;;;;;;;3.71;59.87;99155.56;5095348;28;20044;-66
2024/04/06 05:04:59;;;;;;;18.40;10.68;;;;;;;3.63;61.45;99159.16;5112371;28;20078;-66
2024/04/06 05:07:25;;;;;;;21.65;10.88;;;;;;;3.64;61.49;99152.91;5111816;28;20063;-67
2024/04/06 05:09:53;;;;;;;25.48;12.15;;;;;;;3.67;61.56;99156.94;5112525;28;20508;-66
2024/04/06 05:12:19;;;;;;;26.42;12.68;;;;;;;3.79;61.74;99160.59;5078387;28;20039;-67
2024/04/06 05:14:45;;;;;;;22.65;12.38;;;;;;;3.90;61.71;99161.03;5112116;28;20039;-67
2024/04/06 05:17:11;;;;;;;19.85;10.18;;;;;;;3.95;61.54;99156.00;5112293;28;20077;-65
2024/04/06 05:19:36;;;;;;;18.52;10.52;;;;;;;3.97;61.40;99153.97;5094052;28;20433;-67
2024/04/06 05:22:04;;;;;;;24.60;10.48;;;;;;;4.07;61.30;99144.72;5077480;28;20040;-66
2024/04/06 05:24:30;;;;;;;21.17;11.45;;;;;;;4.14;61.43;99155.19;5093328;28;20412;-66
2024/04/06 05:26:58;;;;;;;18.10;10.60;;;;;;;4.14;61.21;99154.41;5094052;28;20043;-67
2024/04/06 05:29:24;;;;;;;22.50;11.80;;;;;;;4.21;61.74;99145.53;5077462;28;20028;-66
2024/04/06 05:31:54;;;;;;;19.25;11.80;;;;;;;4.14;61.56;99147.34;5093659;28;20057;-67
2024/04/06 05:34:20;;;;;;;25.08;12.07;;;;;;;4.03;62.36;99150.56;5093937;28;20508;-66
2024/04/06 05:36:46;;;;;;;21.60;12.50;;;;;;;4.02;62.90;99139.25;5127994;27;20134;-67
2024/04/06 05:39:11;;;;;;;21.65;11.43;;;;;;;3.96;63.07;99145.31;5111713;28;20740;-66
2024/04/06 05:41:38;;;;;;;21.75;11.95;;;;;;;4.06;63.42;99144.94;5093200;28;20044;-66
2024/04/06 05:44:04;;;;;;;25.98;12.10;;;;;;;4.16;63.43;99139.28;5092873;28;20038;-66
2024/04/06 05:46:29;;;;;;;19.80;11.45;;;;;;;4.31;63.24;99148.56;5110741;28;20436;-66
2024/04/06 05:48:55;;;;;;;20.70;11.30;;;;;;;4.33;62.51;99146.53;5110846;28;20059;-66
2024/04/06 05:51:21;;;;;;;22.50;11.82;;;;;;;4.36;62.69;99142.72;5077008;28;20043;-67
2024/04/06 05:53:49;;;;;;;20.30;11.10;;;;;;;4.37;62.12;99143.50;5110727;28;20118;-65
2024/04/06 05:56:14;;;;;;;19.33;10.85;;;;;;;4.38;62.41;99143.28;5112060;28;20485;-66
2024/04/06 05:58:40;;;;;;;19.45;10.75;;;;;;;4.37;62.06;99141.69;5076830;28;20051;-67
2024/04/06 06:01:06;;;;;;;19.27;11.82;;;;;;;4.36;62.33;99145.34;5093629;28;20131;-67
2024/04/06 06:03:32;;;;;;;19.27;11.45;;;;;;;4.38;62.06;99138.03;5093324;28;20039;-66
2024/04/06 06:05:57;;;;;;;20.73;11.30;;;;;;;4.39;62.14;99138.88;5111882;28;20543;-67
2024/04/06 06:08:23;;;;;;;19.63;12.07;;;;;;;4.55;62.02;99148.94;5093326;28;20055;-64
2024/04/06 06:10:49;;;;;;;18.48;10.65;;;;;;;4.57;61.82;99138.25;5092973;28;20040;-66
2024/04/06 06:13:16;;;;;;;25.73;11.88;;;;;;;4.71;61.62;99138.03;5059980;28;20485;-66
2024/04/06 06:15:42;;;;;;;20.38;10.73;;;;;;;4.72;60.83;99130.94;5110867;28;20126;-68
2024/04/06 06:18:08;;;;;;;18.13;10.75;;;;;;;4.74;61.16;99128.94;5110916;28;20122;-67
2024/04/06 06:20:37;;;;;;;18.20;10.88;;;;;;;4.81;60.55;99126.28;5092349;28;20455;-66
2024/04/06 06:23:03;;;;;;;21.38;11.70;;;;;;;4.86;61.19;99123.84;5110414;28;20036;-68
2024/04/06 06:25:28;;;;;;;20.88;11.02;;;;;;;4.86;60.81;99129.09;5092733;28;20055;-66
2024/04/06 06:27:56;;;;;;;18.35;10.65;;;;;;;4.85;60.52;99125.66;5111138;28;20489;-70
2024/04/06 06:30:22;;;;;;;21.88;11.30;;;;;;;4.94;60.33;99128.84;5075567;28;20051;-68
2024/04/06 06:32:48;;;;;;;20.17;10.55;;;;;;;5.01;60.14;99116.53;5110709;28;20031;-68
2024/04/06 06:35:14;;;;;;;22.42;11.68;;;;;;;5.05;60.57;99109.03;5110617;28;20096;-70
2024/04/06 06:37:39;;;;;;;22.70;11.88;;;;;;;5.04;60.94;99112.69;5114010;28;20027;-66
2024/04/06 06:40:05;;;;;;;24.63;11.80;;;;;;;5.11;60.07;99113.44;5114856;28;20058;-67
2024/04/06 06:42:31;;;;;;;22.75;12.45;;;;;;;5.15;61.00;99127.78;5114641;28;20176;-66
2024/04/06 06:44:57;;;;;;;19.98;11.75;;;;;;;5.18;60.87;99116.88;5114393;28;20181;-66
2024/04/06 06:47:24;;;;;;;23.95;12.18;;;;;;;5.26;60.58;99127.13;5115005;28;20043;-67
2024/04/06 06:49:51;;;;;;;24.52;12.30;;;;;;;5.38;60.43;99132.53;5114712;28;20528;-64
2024/04/06 06:52:18;;;;;;;24.42;12.23;;;;;;;5.47;60.65;99128.63;5096530;28;20450;-67
2024/04/06 06:54:44;;;;;;;20.73;12.10;;;;;;;5.54;60.24;99128.63;5096325;28;20492;-66
2024/04/06 06:57:10;;;;;;;18.05;11.85;;;;;;;5.60;59.37;99128.56;5113607;28;20050;-65
2024/04/06 06:59:35;;;;;;;21.30;11.40;;;;;;;5.69;59.30;99134.38;5111932;28;20445;-65
2024/04/06 07:02:01;;;;;;;23.15;12.07;;;;;;;5.64;59.69;99132.38;5111415;28;20055;-66
2024/04/06 07:04:27;;;;;;;23.15;12.57;;;;;;;5.45;60.98;99128.84;5095472;28;20032;-65
2024/04/06 07:06:53;;;;;;;29.52;11.80;;;;;;;5.38;61.23;99116.75;5091376;28;20039;-63
2024/04/06 07:09:21;;;;;;;21.00;11.80;;;;;;;5.41;61.82;99127.69;5112541;28;20054;-63
2024/04/06 07:11:47;;;;;;;28.38;12.90;;;;;;;5.34;61.26;99116.38;5095561;28;20043;-65
2024/04/06 07:14:13;;;;;;;30.98;13.75;;;;;;;5.53;60.94;99122.56;5113993;28;20040;-64
2024/04/06 07:16:39;;;;;;;25.38;12.48;;;;;;;5.74;61.39;99125.88;5112186;28;20084;-70
2024/04/06 07:19:06;;;;;;;27.73;11.85;;;;;;;5.64;60.74;99121.88;5111732;28;20036;-67
2024/04/06 07:21:32;;;;;;;31.40;13.13;;;;;;;5.65;61.11;99123.50;5112703;28;20046;-66
2024/04/06 07:23:58;;;;;;;23.25;12.88;;;;;;;5.80;60.40;99125.03;5110311;28;20057;-65
2024/04/06 07:26:25;;;;;;;26.20;12.70;;;;;;;5.95;60.10;99130.00;5094951;28;20039;-67
2024/04/06 07:28:51;;;;;;;27.98;13.07;;;;;;;6.05;60.32;99136.41;5096478;28;20050;-65
2024/04/06 07:31:17;;;;;;;29.90;12.88;;;;;;;6.23;59.17;99129.59;5097317;28;20067;-62
2024/04/06 07:33:43;;;;;;;26.40;12.88;;;;;;;6.37;59.43;99128.44;5130077;27;20035;-69
2024/04/06 07:36:09;;;;;;;25.27;12.60;;;;;;;6.52;58.63;99128.91;5113473;28;20039;-68
2024/04/06 07:38:35;;;;;;;24.00;12.25;;;;;;;6.70;58.45;99124.69;5113224;28;20085;-67
2024/04/06 07:41:02;;;;;;;22.08;11.93;;;;;;;6.79;57.86;99126.00;5113648;28;20100;-68
2024/04/06 07:43:29;;;;;;;23.45;12.90;;;;;;;6.49;58.68;99129.34;5103719;28;20123;-68
2024/04/06 07:45:55;;;;;;;22.60;12.10;;;;;;;6.53;59.45;99121.81;5111871;28;20043;-67
2024/04/06 07:48:21;;;;;;;23.38;11.90;;;;;;;6.54;58.66;99116.34;5094119;28;20421;-67
2024/04/06 07:50:47;;;;;;;21.92;12.48;;;;;;;6.70;58.63;99124.69;5088892;28;20063;-66
2024/04/06 07:53:13;;;;;;;21.27;12.25;;;;;;;6.74;58.23;99118.78;5112640;28;20044;-68
2024/04/06 07:55:39;;;;;;;20.00;11.27;;;;;;;6.85;57.30;99130.41;5094162;28;20438;-68
2024/04/06 07:58:05;;;;;;;22.25;12.77;;;;;;;6.72;58.10;99120.81;5118724;27;20096;-67
2024/04/06 08:00:32;;;;;;;22.30;12.63;;;;;;;6.95;57.30;99133.34;5082514;28;20043;-68
2024/04/06 08:02:58;;;;;;;19.92;12.20;;;;;;;7.03;57.36;99122.53;5094500;28;20039;-67
2024/04/06 08:05:24;;;;;;;26.15;12.25;;;;;;;7.02;56.73;99125.38;5092726;28;20048;-67
2024/04/06 08:07:50;;;;;;;25.33;12.75;;;;;;;7.02;57.06;99123.53;5090535;28;20039;-68
2024/04/06 08:10:20;;;;;;;20.52;12.55;;;;;;;7.03;57.24;99127.00;5112833;28;20051;-64
2024/04/06 08:12:47;;;;;;;24.90;12.40;;;;;;;6.91;57.03;99118.19;5077878;28;20044;-67
2024/04/06 08:15:13;;;;;;;22.58;12.05;;;;;;;6.86;57.16;99115.44;5112772;28;20074;-65
2024/04/06 08:17:41;;;;;;;22.23;12.55;;;;;;;6.87;56.92;99112.56;5128182;27;20047;-66
2024/04/06 08:20:07;;;;;;;23.80;13.15;;;;;;;6.96;57.56;99115.72;5073814;28;20047;-64
2024/04/06 08:22:33;;;;;;;24.35;12.35;;;;;;;7.06;56.96;99108.09;5092295;28;20094;-65
2024/04/06 08:24:59;;;;;;;19.52;12.57;;;;;;;7.01;56.79;99110.59;5108547;28;20062;-64
2024/04/06 08:27:25;;;;;;;23.70;12.38;;;;;;;6.94;57.02;99105.41;5127894;27;20051;-66
2024/04/06 08:29:51;;;;;;;20.85;12.40;;;;;;;7.03;56.68;99111.97;5093819;28;20039;-67
2024/04/06 08:32:17;;;;;;;27.40;12.88;;;;;;;7.11;56.91;99105.59;5090830;28;20088;-65
2024/04/06 08:34:43;;;;;;;24.55;13.20;;;;;;;7.40;56.15;99105.84;5110675;28;20516;-65
2024/04/06 08:37:09;;;;;;;23.23;12.90;;;;;;;7.58;55.37;99075.97;5092230;28;20398;-67
2024/04/06 08:39:35;;;;;;;28.73;12.38;;;;;;;7.89;54.87;99093.38;5075426;28;20032;-67
2024/04/06 08:42:02;;;;;;;21.48;12.27;;;;;;;7.83;54.19;99089.00;5111603;28;20052;-66
2024/04/06 08:44:40;;;;;;;21.25;12.77;;;;;;;7.61;54.59;99081.59;5076050;28;20032;-63
2024/04/06 08:47:08;;;;;;;25.83;12.68;;;;;;;7.56;55.16;99086.75;5100152;28;20040;-67
2024/04/06 08:49:35;;;;;;;22.48;13.73;;;;;;;7.38;54.99;99044.59;5081325;28;20056;-67
2024/04/06 08:52:01;;;;;;;23.67;13.00;;;;;;;7.68;54.70;99074.41;5071101;28;20060;-65
2024/04/06 08:54:28;;;;;;;21.92;12.43;;;;;;;7.65;54.63;99074.06;5053452;28;20037;-68
2024/04/06 08:56:57;;;;;;;24.30;13.23;;;;;;;7.66;54.99;99073.81;5070667;28;20429;-67
2024/04/06 08:59:23;;;;;;;20.55;12.75;;;;;;;7.66;55.25;99083.56;5051818;28;20106;-65
2024/04/06 09:01:49;;;;;;;30.65;12.98;;;;;;;7.87;54.99;99088.31;5069692;28;20041;-69
2024/04/06 09:04:15;;;;;;;21.48;12.18;;;;;;;8.09;54.35;99087.75;5050692;28;20111;-66
2024/04/06 09:06:43;;;;;;;26.67;13.02;;;;;;;8.12;54.23;99074.13;5070112;28;20040;-65
2024/04/06 09:09:10;;;;;;;23.55;12.50;;;;;;;8.01;54.16;99081.00;5069354;28;20033;-65
2024/04/06 09:11:39;;;;;;;24.02;12.73;;;;;;;7.82;54.65;99066.28;5069670;28;20071;-64
2024/04/06 09:14:06;;;;;;;25.33;13.07;;;;;;;7.88;54.84;99066.19;5069962;28;20032;-63
2024/04/06 09:16:35;;;;;;;24.08;13.05;;;;;;;8.05;54.62;99068.16;5069579;28;20036;-62
2024/04/06 09:19:01;;;;;;;19.85;11.80;;;;;;;8.23;53.82;99069.88;5034940;28;20051;-62
2024/04/06 09:21:30;;;;;;;20.80;12.50;;;;;;;8.24;53.96;99071.50;5069890;28;20048;-63
2024/04/06 09:23:57;;;;;;;26.10;13.48;;;;;;;8.07;54.89;99072.16;5069218;28;20063;-64
2024/04/06 09:26:23;;;;;;;26.13;13.90;;;;;;;8.26;54.17;99072.06;5069508;28;20048;-65
2024/04/06 09:28:51;;;;;;;21.33;11.75;;;;;;;8.12;54.38;99077.56;5070581;28;20079;-65
2024/04/06 09:31:20;;;;;;;23.33;13.05;;;;;;;8.05;54.33;99074.22;5052064;28;20048;-67
2024/04/06 09:33:58;;;;;;;20.25;12.70;;;;;;;7.99;54.64;99069.84;5070794;28;20072;-64
2024/04/06 09:36:24;;;;;;;22.17;13.10;;;;;;;8.03;55.01;99073.66;5070092;28;20048;-65
2024/04/06 09:38:51;;;;;;;26.98;13.73;;;;;;;8.00;55.20;99062.75;5069683;28;20033;-63
2024/04/06 09:41:19;;;;;;;28.35;13.80;;;;;;;7.94;54.97;99073.19;5071440;28;20040;-64
2024/04/06 09:43:48;;;;;;;28.52;12.88;;;;;;;7.94;54.94;99060.00;5070765;28;20592;-64
2024/04/06 09:46:15;;;;;;;24.60;13.32;;;;;;;8.03;55.17;99063.09;5071330;28;20070;-65
2024/04/06 09:48:44;;;;;;;25.77;13.57;;;;;;;8.15;55.00;99066.56;5072651;28;20044;-65
2024/04/06 09:51:10;;;;;;;21.33;13.60;;;;;;;8.04;55.67;99058.63;5111863;28;20043;-65
2024/04/06 09:53:41;;;;;;;25.92;13.45;;;;;;;8.08;55.43;99065.03;5110085;28;20511;-64
2024/04/06 09:56:08;;;;;;;26.17;13.55;;;;;;;8.10;55.57;99066.44;5111698;28;20053;-62
2024/04/06 09:58:34;;;;;;;21.88;13.73;;;;;;;8.12;55.46;99063.56;5110449;28;20044;-64
2024/04/06 10:01:07;;;;;;;21.58;13.25;;;;;;;8.06;55.20;99049.44;5111698;28;20035;-62
2024/04/06 10:03:37;;;;;;;27.70;13.68;;;;;;;8.11;55.95;99057.47;5090504;28;20044;-66
2024/04/06 10:06:17;;;;;;;23.63;13.30;;;;;;;8.07;55.80;99052.88;5090693;28;20067;-65
2024/04/06 10:08:50;;;;;;;34.78;13.93;;;;;;;8.03;56.15;99057.81;5088876;28;20063;-69
2024/04/06 10:11:17;;;;;;;28.35;14.30;;;;;;;7.91;56.65;99054.34;5072054;28;20048;-67
2024/04/06 10:14:01;;;;;;;21.17;12.65;;;;;;;7.83;56.75;99042.31;5073680;28;20036;-70
2024/04/06 10:16:28;;;;;;;26.70;13.35;;;;;;;7.88;56.39;99050.34;5091922;28;20044;-69
2024/04/06 10:18:58;;;;;;;26.85;13.63;;;;;;;8.05;56.61;99047.81;5096326;28;20131;-68
2024/04/06 10:21:32;;;;;;;23.08;14.00;;;;;;;8.17;56.37;99043.34;5093510;28;20098;-68
2024/04/06 10:24:01;;;;;;;28.42;14.25;;;;;;;8.28;56.37;99047.03;5091372;28;20123;-71
2024/04/06 10:26:27;;;;;;;26.65;13.98;;;;;;;8.28;55.99;99052.31;5093684;28;20048;-67
2024/04/06 10:28:53;;;;;;;26.95;14.35;;;;;;;8.20;56.34;99048.16;5095039;28;20043;-68
2024/04/06 10:31:19;;;;;;;22.25;13.02;;;;;;;8.17;56.44;99050.47;5094933;28;20438;-68
2024/04/06 10:33:44;;;;;;;26.60;13.90;;;;;;;8.12;56.47;99047.72;5094673;28;20039;-68
2024/04/06 10:36:11;;;;;;;28.63;14.55;;;;;;;8.23;56.75;99046.91;5094940;28;20122;-68
2024/04/06 10:38:38;;;;;;;23.23;14.38;;;;;;;8.34;56.37;99038.19;5094560;28;20036;-68
2024/04/06 10:41:13;;;;;;;28.67;13.13;;;;;;;8.38;56.39;99038.50;5073150;28;20048;-67
2024/04/06 10:43:40;;;;;;;24.95;14.00;;;;;;;8.31;57.11;99041.28;5075666;28;20532;-69
2024/04/06 10:46:06;;;;;;;21.15;13.45;;;;;;;8.51;56.71;99048.88;5092563;28;20048;-68
2024/04/06 10:48:38;;;;;;;26.45;14.43;;;;;;;8.58;56.42;99038.97;5093947;28;20031;-68
2024/04/06 10:51:04;;;;;;;24.38;13.63;;;;;;;8.61;56.25;99043.00;5093892;28;20048;-66
2024/04/06 10:53:30;;;;;;;22.33;12.85;;;;;;;8.50;56.40;99041.16;5093907;28;20046;-67
2024/04/06 10:55:56;;;;;;;30.13;13.98;;;;;;;8.51;57.07;99040.94;5089944;28;20081;-68
2024/04/06 10:58:22;;;;;;;28.48;13.13;;;;;;;8.62;56.83;99029.56;5092598;28;20032;-68
2024/04/06 11:00:48;;;;;;;23.50;13.63;;;;;;;8.73;56.71;99038.47;5057957;28;20516;-67
2024/04/06 11:03:14;;;;;;;22.75;12.55;;;;;;;8.67;56.57;99035.97;5092677;28;20052;-68
2024/04/06 11:05:40;;;;;;;23.52;13.07;;;;;;;8.68;56.74;99034.94;5093771;28;20178;-69
2024/04/06 11:08:06;;;;;;;24.70;13.13;;;;;;;8.68;56.86;99032.28;5092685;28;20135;-68
2024/04/06 11:10:33;;;;;;;27.10;13.85;;;;;;;8.78;56.31;99028.03;5093038;28;20048;-67
2024/04/06 11:13:00;;;;;;;25.42;14.15;;;;;;;8.85;56.05;99035.81;5074078;28;20065;-66
2024/04/06 11:15:27;;;;;;;25.85;12.95;;;;;;;8.79;56.53;99034.91;5092988;28;20051;-68
2024/04/06 11:17:53;;;;;;;25.52;13.13;;;;;;;8.78;56.21;99024.59;5092675;28;20510;-67
2024/04/06 11:20:19;;;;;;;23.58;13.10;;;;;;;8.82;56.43;99023.06;5091011;28;20040;-66
2024/04/06 11:22:45;;;;;;;24.45;13.15;;;;;;;8.90;55.90;99021.91;5093035;28;20416;-65
2024/04/06 11:25:17;;;;;;;25.50;13.38;;;;;;;8.91;56.00;99031.44;5075568;28;20480;-64